Latest Conditions
At L.F.Wade Int. Airport
Recorded at 4:55 pm
Mostly Cloudy
Temp.: 
18°C/64°F
Humidity: 
57%
Wind: 
NNE 4KT
or 5mph
UV Index: 
0
Island Observations
 
Observations
Thursday, December 13, 2018

Observations are in local time and taken at least once an hour, or upon the start and end of specified events such as showers and thunderstorms.

Time Sky / Weather Wind Speed/Gusts Temp. R.H. Pressure
     knots (mph)  °C (°F)  %  mb / "Hg
 16:55 Mostly Cloudy  NNE 4/0 (5/0) 18(64) 57 1028 / 30.37
 15:55 Mostly Cloudy  NNE 7/0 (8/0) 19(66) 55 1028 / 30.35
 14:55 Mostly Cloudy  NNW 5/0 (6/0) 19(67) 55 1027 / 30.34
 13:55 Mostly Cloudy  N 8/0 (9/0) 19(66) 58 1027 / 30.33
 12:55 Mostly Cloudy  N 6/0 (7/0) 20(67) 54 1027 / 30.33
 11:55 Partly Cloudy  N 7/0 (8/0) 20(67) 54 1027 / 30.34
 10:55 Mostly Cloudy  N 8/0 (9/0) 19(66) 54 1027 / 30.34
 09:55 Partly Cloudy  NNW 9/0 (10/0) 19(67) 51 1027 / 30.33
 08:55 Mostly Cloudy  NW 8/0 (9/0) 18(65) 51 1026 / 30.31
 07:55 Mostly Cloudy  NNW 8/0 (9/0) 18(64) 55 1026 / 30.29
 06:55 Mostly Cloudy  WNW 8/0 (9/0) 18(64) 54 1025 / 30.27
 05:55 Few Clouds  WNW 9/0 (10/0) 18(64) 51 1024 / 30.25
 04:55 Few Clouds  NW 10/0 (12/0) 18(64) 52 1024 / 30.23
 03:55 Partly Cloudy  NW 9/0 (10/0) 18(64) 47 1023 / 30.22
 02:55 Partly Cloudy  NW 13/0 (15/0) 18(64) 47 1023 / 30.21
 01:55 Partly Cloudy  NW 13/0 (15/0) 18(64) 57 1023 / 30.20
 00:55 Partly Cloudy  NNW 14/0 (16/0) 18(64) 61 1022 / 30.19
 23:55 Mostly Cloudy  NNW 12/0 (14/0) 18(65) 59 1022 / 30.17
 22:55 Mostly Cloudy  NW 14/0 (16/0) 19(66) 52 1022 / 30.17
 21:55 Mostly Cloudy  WNW 14/0 (16/0) 19(66) 51 1021 / 30.16
 20:55 Mostly Cloudy  WNW 17/0 (20/0) 19(66) 53 1021 / 30.14
 19:55 Partly Cloudy  WNW 19/0 (22/0) 19(66) 55 1020 / 30.12
 18:55 Partly Cloudy  WNW 20/0 (23/0) 19(66) 50 1020 / 30.11
 17:55 Partly Cloudy  WNW 18/0 (21/0) 19(66) 56 1019 / 30.10
 16:55 Partly Cloudy  WNW 22/0 (25/0) 19(66) 49 1019 / 30.08
 15:55 Partly Cloudy  WNW 21/0 (24/0) 19(67) 54 1018 / 30.06
 14:55 Partly Cloudy  W 21/0 (24/0) 19(67) 57 1017 / 30.04
 13:55 Partly Cloudy Showers WNW 21/0 (24/0) 19(67) 59 1017 / 30.04
 12:55 Partly Cloudy  WNW 20/0 (23/0) 20(67) 58 1017 / 30.02
 11:55 Partly Cloudy  WNW 20/0 (23/0) 20(68) 52 1017 / 30.02
 10:55 Partly Cloudy  WNW 20/0 (23/0) 20(68) 52 1017 / 30.03
 09:55 Partly Cloudy  WNW 19/0 (22/0) 20(68) 57 1016 / 30.01
 08:55 Partly Cloudy  WNW 20/0 (23/0) 19(67) 70 1016 / 29.99
 07:55 Partly Cloudy Showers WNW 18/0 (21/0) 19(67) 65 1014 / 29.95
 06:55 Partly Cloudy  W 21/0 (24/0) 19(65) 71 1013 / 29.92
 06:31 Mostly Cloudy Showers WNW 22/0 (25/0) 18(65) 76 1013 / 29.92
 06:11 Mostly Cloudy Showers NW 25/0 (29/0) 18(64) 82 1013 / 29.91
 05:55 Mostly Cloudy  W 22/0 (25/0) 20(67) 65 1012 / 29.89
 04:55 Mostly Cloudy Showers W 22/0 (25/0) 20(67) 64 1012 / 29.88
 03:55 Mostly Cloudy  WNW 22/0 (25/0) 20(68) 62 1010 / 29.83
 02:55 Overcast  WNW 23/0 (26/0) 20(68) 67 1010 / 29.82
 01:55 Overcast  WNW 24/0 (28/0) 20(67) 70 1010 / 29.84
 01:47 Overcast  WNW 27/0 (31/0) 20(67) 75 1009 / 29.80
 01:10 Overcast Showers WNW 28/0 (32/0) 20(68) 77 1009 / 29.79
 00:55 Overcast Rain WSW 25/0 (29/0) 20(67) 85 1008 / 29.76
 00:35 Overcast Rain WSW 29/39 (33/45) 20(68) 76 1008 / 29.77
 23:55 Overcast Rain WSW 30/0 (35/0) 20(69) 75 1008 / 29.78
 22:55 Overcast Rain SW 31/43 (36/50) 21(70) 82 1009 / 29.80
 21:55 Overcast Rain SW 25/0 (29/0) 21(71) 79 1009 / 29.79
 21:14 Overcast Showers WSW 27/0 (31/0) 21(70) 79 1009 / 29.81
 20:55 Overcast Rain SW 24/0 (28/0) 21(70) 82 1009 / 29.81
 20:05 Overcast Rain W 26/0 (30/0) 21(70) 75 1010 / 29.83
 19:55 Overcast Showers WSW 26/0 (30/0) 22(72) 71 1010 / 29.82
 19:31 Overcast Showers WSW 24/0 (28/0) 22(72) 72 1010 / 29.83
 18:55 Overcast Showers SW 21/0 (24/0) 22(72) 75 1010 / 29.82
 18:43 Overcast Showers WSW 22/0 (25/0) 22(72) 77 1010 / 29.82
 17:55 Overcast Showers WSW 20/0 (23/0) 22(72) 78 1010 / 29.83
 16:55 Overcast Showers SW 17/0 (20/0) 22(72) 87 1010 / 29.84
 16:18 Mostly Cloudy Showers SW 17/0 (20/0) 22(72) 88 1010 / 29.84
 16:00 Mostly Cloudy Showers WSW 15/0 (17/0) 23(73) 86 1011 / 29.85
 15:55 Mostly Cloudy Showers SW 17/0 (20/0) 23(73) 83 1011 / 29.85
 15:20 Overcast Showers SW 20/0 (23/0) 22(71) 80 1011 / 29.86
 14:55 Overcast Showers SW 18/0 (21/0) 23(74) 84 1011 / 29.86
 13:55 Overcast  SW 13/0 (15/0) 23(73) 82 1012 / 29.87
 12:55 Overcast  SW 15/0 (17/0) 23(74) 75 1013 / 29.90
 11:55 Overcast  SSW 14/0 (16/0) 23(74) 78 1014 / 29.93
 10:55 Overcast  SW 9/0 (10/0) 23(73) 80 1014 / 29.95
 09:55 Overcast  WSW 9/0 (10/0) 22(72) 78 1015 / 29.96
 08:55 Overcast  SW 7/0 (8/0) 22(72) 79 1015 / 29.96
 07:55 Overcast  WSW 6/0 (7/0) 21(70) 87 1014 / 29.95
 06:55 Mostly Cloudy  W 9/0 (10/0) 21(71) 84 1014 / 29.94
 05:55 Mostly Cloudy  W 12/0 (14/0) 22(71) 82 1013 / 29.91
 04:55 Mostly Cloudy  WSW 12/0 (14/0) 22(71) 84 1013 / 29.91
 03:55 Mostly Cloudy  W 14/0 (16/0) 22(71) 85 1013 / 29.91
 02:55 Mostly Cloudy  W 14/0 (16/0) 22(71) 87 1013 / 29.91
 01:55 Mostly Cloudy  WSW 10/0 (12/0) 22(72) 86 1013 / 29.90
 00:55 Mostly Cloudy  WSW 13/0 (15/0) 22(71) 86 1013 / 29.90
 23:55 Mostly Cloudy  WSW 17/0 (20/0) 22(72) 83 1013 / 29.90
 22:55 Mostly Cloudy  WSW 17/0 (20/0) 22(72) 91 1013 / 29.90
 21:55 Mostly Cloudy  WSW 19/0 (22/0) 23(73) 90 1012 / 29.89
 21:40 Mostly Cloudy  WSW 19/0 (22/0) 23(73) 89 1012 / 29.89
 20:55 Mostly Cloudy Showers WSW 22/0 (25/0) 22(72) 89 1012 / 29.88
 19:55 Mostly Cloudy Showers WSW 24/0 (28/0) 23(73) 85 1011 / 29.86
 18:55 Mostly Cloudy Showers WSW 23/0 (26/0) 23(73) 83 1011 / 29.85
 17:55 Mostly Cloudy  WSW 23/0 (26/0) 23(74) 85 1010 / 29.83
 17:44 Mostly Cloudy  WSW 24/0 (28/0) 23(74) 84 1010 / 29.82
 16:55 Mostly Cloudy  WSW 24/0 (28/0) 23(73) 89 1010 / 29.82
 16:40 Mostly Cloudy  WSW 27/0 (31/0) 23(74) 88 1010 / 29.82
 15:55 Overcast Mist SW 29/0 (33/0) 24(75) 84 1008 / 29.78
 15:19 Overcast Mist SW 31/0 (36/0) 24(75) 86 1008 / 29.78
 15:01 Overcast Showers SW 31/41 (36/47) 24(75) 86 1008 / 29.76
 14:55 Mostly Cloudy Showers SW 30/0 (35/0) 24(75) 86 1008 / 29.76
 14:45 Overcast Showers SW 29/0 (33/0) 24(75) 88 1008 / 29.77
 14:37 Overcast Showers SW 30/40 (35/46) 24(75) 88 1008 / 29.77
 14:12 Overcast Showers SW 28/0 (32/0) 24(75) 88 1008 / 29.77
 14:05 Overcast Showers SW 27/0 (31/0) 24(75) 86 1008 / 29.77
 13:55 Overcast Showers SW 26/0 (30/0) 24(75) 89 1009 / 29.79
 13:10 Overcast Showers SW 27/0 (31/0) 24(74) 88 1009 / 29.79
 13:02 Overcast Showers SW 27/0 (31/0) 23(74) 89 1009 / 29.79
 12:55 Overcast Showers SW 27/0 (31/0) 23(74) 90 1009 / 29.81
Island AWOS